Time;durP1;ratioP1;P1;durP2;ratioP2;P2;SDS_P1;SDS_P2;PMS_P1;PMS_P2;Temp;Humidity;BMP_temperature;BMP_pressure;BME280_temperature;BME280_humidity;BME280_pressure;Samples;Min_cycle;Max_cycle;Signal;HPM_P1;HPM_P2
2023/01/28 00:01:43;;;;;;;2.42;1.20;;;17.90;39.50;;;;;;6155659;23;20590;-80
2023/01/28 00:04:09;;;;;;;2.63;1.20;;;17.90;39.50;;;;;;6155604;23;20143;-81
2023/01/28 00:06:35;;;;;;;2.08;0.98;;;17.90;39.50;;;;;;6156205;23;20507;-80
2023/01/28 00:09:01;;;;;;;2.80;0.98;;;17.90;39.50;;;;;;6155598;23;20136;-80
2023/01/28 00:11:26;;;;;;;1.92;1.13;;;17.90;39.50;;;;;;6129607;23;20674;-81
2023/01/28 00:13:52;;;;;;;1.88;0.90;;;17.90;39.50;;;;;;6129449;23;20199;-80
2023/01/28 00:16:18;;;;;;;1.55;0.98;;;17.90;39.60;;;;;;6105473;23;20575;-80
2023/01/28 00:18:44;;;;;;;2.45;1.15;;;17.90;39.60;;;;;;6130089;23;20151;-80
2023/01/28 00:21:11;;;;;;;2.42;1.00;;;17.90;39.60;;;;;;6155918;23;20510;-80
2023/01/28 00:23:38;;;;;;;2.45;1.20;;;17.90;39.70;;;;;;6129876;23;20140;-80
2023/01/28 00:26:10;;;;;;;1.67;0.90;;;17.90;39.70;;;;;;6129927;23;20143;-80
2023/01/28 00:28:35;;;;;;;1.45;1.10;;;17.90;39.70;;;;;;6155454;23;20629;-80
2023/01/28 00:31:11;;;;;;;1.58;0.98;;;17.90;39.70;;;;;;6155463;23;20226;-80
2023/01/28 00:33:36;;;;;;;1.88;0.98;;;17.80;39.70;;;;;;6156400;23;20206;-80
2023/01/28 00:36:05;;;;;;;2.95;1.17;;;17.80;39.70;;;;;;6157415;23;20132;-80
2023/01/28 00:38:31;;;;;;;2.25;0.93;;;17.90;39.80;;;;;;6157281;23;20127;-80
2023/01/28 00:41:09;;;;;;;1.15;0.90;;;17.80;39.70;;;;;;6157417;23;20146;-80
2023/01/28 00:43:35;;;;;;;2.55;0.80;;;17.80;39.70;;;;;;6157625;23;20139;-80
2023/01/28 00:46:01;;;;;;;3.08;0.90;;;17.80;39.80;;;;;;6157599;23;20160;-80
2023/01/28 00:48:27;;;;;;;2.47;1.20;;;17.80;39.80;;;;;;6131218;23;20163;-80
2023/01/28 00:50:52;;;;;;;1.13;1.00;;;17.80;39.80;;;;;;6157269;23;20563;-81
2023/01/28 00:53:18;;;;;;;2.38;1.20;;;17.80;39.80;;;;;;6157230;23;20494;-80
2023/01/28 00:55:44;;;;;;;2.60;1.02;;;17.80;39.80;;;;;;6157269;23;20525;-80
2023/01/28 00:58:09;;;;;;;1.40;0.93;;;17.80;39.80;;;;;;6157142;23;20466;-79
2023/01/28 01:00:35;;;;;;;2.55;0.95;;;17.80;39.80;;;;;;6157522;23;20140;-79
2023/01/28 01:03:00;;;;;;;1.20;0.80;;;17.80;39.80;;;;;;6157035;23;20575;-80
2023/01/28 01:05:28;;;;;;;1.38;0.80;;;17.80;39.80;;;;;;6157105;23;20679;-80
2023/01/28 01:07:54;;;;;;;1.50;0.80;;;17.80;39.80;;;;;;6131889;23;20218;-80
2023/01/28 01:10:19;;;;;;;1.75;1.13;;;17.80;39.90;;;;;;6156957;23;20136;-80
2023/01/28 01:12:46;;;;;;;1.52;0.90;;;17.80;39.90;;;;;;6157020;23;20174;-80
2023/01/28 01:15:12;;;;;;;1.52;1.10;;;17.80;39.90;;;;;;6130797;23;20198;-80
2023/01/28 01:17:39;;;;;;;1.80;1.00;;;17.80;39.90;;;;;;6082385;23;20666;-80
2023/01/28 01:20:07;;;;;;;1.77;0.90;;;17.80;39.90;;;;;;6131604;23;20135;-80
2023/01/28 01:22:33;;;;;;;2.58;1.00;;;17.80;40.00;;;;;;6130968;23;20223;-79
2023/01/28 01:24:59;;;;;;;2.10;1.00;;;17.80;40.00;;;;;;6131365;23;20210;-80
2023/01/28 01:27:25;;;;;;;2.13;1.08;;;17.80;40.00;;;;;;6131194;23;20191;-80
2023/01/28 01:29:51;;;;;;;1.38;0.80;;;17.70;40.00;;;;;;6130967;23;20140;-80
2023/01/28 01:32:17;;;;;;;1.58;1.10;;;17.70;40.00;;;;;;6106482;23;20183;-80
2023/01/28 01:34:43;;;;;;;3.47;1.10;;;17.70;40.00;;;;;;6156843;23;20133;-80
2023/01/28 01:37:09;;;;;;;1.80;0.82;;;17.70;40.00;;;;;;6130886;23;20136;-80
2023/01/28 01:39:35;;;;;;;1.58;1.10;;;17.70;40.10;;;;;;6130705;23;20602;-80
2023/01/28 01:42:01;;;;;;;1.45;0.95;;;17.70;40.00;;;;;;6130799;23;20575;-80
2023/01/28 01:44:59;;;;;;;2.90;0.90;;;17.70;40.10;;;;;;6156951;23;20132;-80
2023/01/28 01:47:41;;;;;;;1.80;1.08;;;17.70;40.10;;;;;;6156868;23;20135;-80
2023/01/28 01:50:22;;;;;;;3.10;0.80;;;17.70;40.10;;;;;;6157115;23;20214;-80
2023/01/28 01:52:49;;;;;;;2.28;0.95;;;17.70;40.10;;;;;;6156903;23;20171;-80
2023/01/28 01:55:17;;;;;;;2.00;1.20;;;17.70;40.20;;;;;;6156605;23;20139;-80
2023/01/28 01:57:42;;;;;;;2.45;0.90;;;17.70;40.10;;;;;;6156702;23;20155;-80
2023/01/28 02:00:09;;;;;;;2.65;0.90;;;17.70;40.10;;;;;;6156517;23;20182;-80
2023/01/28 02:02:39;;;;;;;1.10;0.80;;;17.70;40.10;;;;;;6156886;23;20143;-80
2023/01/28 02:05:07;;;;;;;2.30;0.80;;;17.70;40.20;;;;;;6156901;23;20143;-79
2023/01/28 02:07:32;;;;;;;2.60;1.10;;;17.70;40.10;;;;;;6130666;23;20223;-80
2023/01/28 02:09:58;;;;;;;1.17;0.90;;;17.70;40.20;;;;;;6156473;23;20131;-80
2023/01/28 02:12:28;;;;;;;1.50;0.88;;;17.70;40.20;;;;;;6130453;23;20160;-80
2023/01/28 02:14:57;;;;;;;1.13;0.98;;;17.70;40.20;;;;;;6130888;23;20187;-80
2023/01/28 02:17:23;;;;;;;2.00;0.80;;;17.70;40.30;;;;;;6130400;23;20132;-81
2023/01/28 02:20:00;;;;;;;1.27;0.68;;;17.70;40.20;;;;;;6130386;23;20629;-80
2023/01/28 02:22:59;;;;;;;0.77;0.70;;;17.70;40.30;;;;;;6130500;23;20139;-80
2023/01/28 02:25:59;;;;;;;1.95;1.02;;;17.70;40.30;;;;;;6130042;23;20537;-80
2023/01/28 02:28:59;;;;;;;2.35;0.80;;;17.70;40.30;;;;;;6130264;23;20158;-80
2023/01/28 02:31:49;;;;;;;1.73;0.85;;;17.70;40.40;;;;;;6137683;23;20231;-80
2023/01/28 02:34:29;;;;;;;2.53;0.90;;;17.60;40.30;;;;;;6133780;23;20167;-80
2023/01/28 02:37:16;;;;;;;0.90;0.85;;;17.70;40.40;;;;;;6156354;23;20207;-80
2023/01/28 02:39:47;;;;;;;1.40;0.77;;;17.70;40.40;;;;;;6130298;23;20578;-79
2023/01/28 02:42:18;;;;;;;1.23;0.98;;;17.60;40.30;;;;;;6156368;23;20132;-79
2023/01/28 02:44:43;;;;;;;2.65;0.80;;;17.60;40.30;;;;;;6156186;23;20582;-80
2023/01/28 02:49:55;;;;;;;0.93;0.80;;;17.70;40.40;;;;;;6156213;23;20142;-79
2023/01/28 02:56:08;;;;;;;2.67;0.70;;;17.60;40.40;;;;;;6142435;23;20146;-80
2023/01/28 03:02:01;;;;;;;1.17;0.98;;;17.70;40.40;;;;;;6141811;23;20238;-79
2023/01/28 03:04:30;;;;;;;1.35;0.80;;;17.60;40.40;;;;;;6130923;23;20559;-80
2023/01/28 03:06:58;;;;;;;0.90;0.90;;;17.60;40.50;;;;;;6130423;23;20218;-80
2023/01/28 03:09:25;;;;;;;1.85;0.85;;;17.60;40.50;;;;;;6130358;23;20132;-80
2023/01/28 03:39:04;;;;;;;1.27;0.82;;;17.60;40.60;;;;;;6155843;23;20146;-80
2023/01/28 03:41:29;;;;;;;1.70;0.80;;;17.60;40.50;;;;;;6155715;23;20211;-80
2023/01/28 03:43:55;;;;;;;1.08;0.93;;;17.60;40.60;;;;;;6129961;23;20579;-80
2023/01/28 03:46:21;;;;;;;1.27;1.00;;;17.60;40.50;;;;;;6129767;23;20466;-80
2023/01/28 03:48:46;;;;;;;1.48;0.85;;;17.60;40.60;;;;;;6156010;23;20576;-80
2023/01/28 03:51:12;;;;;;;2.05;0.90;;;17.60;40.60;;;;;;6155960;23;20135;-80
2023/01/28 03:53:39;;;;;;;1.45;0.90;;;17.60;40.60;;;;;;6155619;23;20170;-80
2023/01/28 03:56:05;;;;;;;1.45;0.85;;;17.60;40.60;;;;;;6129980;23;20175;-79
2023/01/28 03:58:51;;;;;;;1.33;0.85;;;17.60;40.60;;;;;;6155666;23;20143;-80
2023/01/28 04:01:16;;;;;;;1.25;0.88;;;17.60;40.60;;;;;;6133704;23;20591;-79
2023/01/28 04:03:41;;;;;;;1.05;0.90;;;17.60;40.70;;;;;;6156129;23;20139;-79
2023/01/28 04:06:08;;;;;;;1.13;0.80;;;17.60;40.70;;;;;;6156040;23;20159;-80
2023/01/28 04:08:34;;;;;;;1.08;0.70;;;17.60;40.70;;;;;;6156246;23;20139;-80
2023/01/28 04:11:15;;;;;;;2.70;0.95;;;17.60;40.70;;;;;;6132165;23;20594;-80
2023/01/28 04:13:41;;;;;;;1.45;0.95;;;17.50;40.70;;;;;;6157510;23;20195;-79
2023/01/28 04:16:07;;;;;;;1.17;0.70;;;17.50;40.60;;;;;;6107017;23;20532;-80
2023/01/28 04:18:33;;;;;;;1.45;0.90;;;17.50;40.70;;;;;;6131630;23;20131;-80
2023/01/28 04:20:59;;;;;;;3.30;1.10;;;17.50;40.70;;;;;;6131497;23;20148;-80
2023/01/28 04:23:25;;;;;;;1.83;0.90;;;17.60;40.70;;;;;;6131607;23;20140;-81
2023/01/28 04:25:51;;;;;;;1.10;0.80;;;17.60;40.70;;;;;;6132105;23;20139;-80
2023/01/28 04:28:16;;;;;;;1.73;0.95;;;17.50;40.70;;;;;;6131532;23;20182;-80
2023/01/28 04:30:42;;;;;;;1.05;0.95;;;17.50;40.70;;;;;;6131700;23;20531;-80
2023/01/28 04:33:08;;;;;;;1.70;0.90;;;17.50;40.70;;;;;;6157306;23;20250;-80
2023/01/28 04:35:33;;;;;;;1.27;0.90;;;17.50;40.70;;;;;;6157428;23;20140;-80
2023/01/28 04:37:59;;;;;;;1.55;0.88;;;17.50;40.70;;;;;;6157479;23;20138;-80
2023/01/28 04:40:25;;;;;;;2.17;0.90;;;17.50;40.70;;;;;;6157314;23;20558;-80
2023/01/28 04:42:52;;;;;;;0.90;0.80;;;17.50;40.80;;;;;;6157446;23;20443;-80
2023/01/28 04:45:18;;;;;;;1.98;0.93;;;17.50;40.80;;;;;;6157388;23;20143;-80
2023/01/28 04:47:44;;;;;;;1.77;0.90;;;17.50;40.80;;;;;;6157202;23;20148;-80
2023/01/28 04:50:09;;;;;;;0.95;0.60;;;17.50;40.80;;;;;;6157358;23;20174;-80
2023/01/28 04:52:35;;;;;;;1.60;0.90;;;17.50;40.80;;;;;;6157123;23;20168;-80
2023/01/28 04:55:02;;;;;;;1.40;0.80;;;17.50;40.80;;;;;;6157192;23;20626;-80
2023/01/28 04:57:27;;;;;;;1.08;0.80;;;17.50;40.80;;;;;;6157662;23;20203;-80
2023/01/28 04:59:53;;;;;;;2.08;0.80;;;17.50;40.80;;;;;;6157304;23;20210;-80
2023/01/28 05:02:19;;;;;;;1.58;0.75;;;17.50;40.80;;;;;;6157537;23;20700;-80
2023/01/28 05:04:44;;;;;;;1.65;0.98;;;17.50;40.80;;;;;;6106951;23;20583;-79
2023/01/28 05:07:10;;;;;;;1.33;0.90;;;17.50;40.80;;;;;;6157139;23;20146;-79
2023/01/28 05:09:36;;;;;;;1.98;1.00;;;17.50;40.80;;;;;;6157527;23;20135;-80
2023/01/28 05:12:02;;;;;;;0.88;0.80;;;17.60;40.90;;;;;;6157018;23;20234;-80
2023/01/28 05:14:28;;;;;;;1.55;0.90;;;17.50;40.80;;;;;;6130813;23;20282;-80
2023/01/28 05:16:53;;;;;;;2.17;0.90;;;17.50;40.80;;;;;;6131186;23;20132;-80
2023/01/28 05:19:19;;;;;;;1.45;0.77;;;17.50;40.80;;;;;;6130829;23;20563;-80
2023/01/28 05:21:44;;;;;;;1.08;0.70;;;17.50;40.90;;;;;;6131157;23;20627;-79
2023/01/28 05:24:10;;;;;;;1.05;0.93;;;17.50;40.80;;;;;;6156961;23;20475;-80
2023/01/28 05:26:36;;;;;;;2.30;1.02;;;17.50;40.80;;;;;;6156977;23;20560;-80
2023/01/28 05:29:02;;;;;;;1.55;0.85;;;17.50;40.90;;;;;;6157268;23;20135;-79
2023/01/28 05:31:28;;;;;;;0.93;0.80;;;17.50;41.00;;;;;;6106565;23;20148;-79
2023/01/28 05:33:53;;;;;;;1.00;0.60;;;17.50;40.90;;;;;;6106465;23;20622;-80
2023/01/28 05:36:19;;;;;;;1.23;0.90;;;17.50;40.90;;;;;;6106603;23;20613;-80
2023/01/28 05:38:45;;;;;;;1.20;0.80;;;17.50;40.90;;;;;;6130903;23;20139;-80
2023/01/28 05:41:10;;;;;;;0.63;0.60;;;17.50;40.90;;;;;;6106999;23;20560;-79
2023/01/28 05:43:36;;;;;;;1.17;0.90;;;17.50;40.90;;;;;;6156668;23;20471;-80
2023/01/28 05:46:02;;;;;;;0.90;0.60;;;17.50;40.90;;;;;;6156712;23;20518;-80
2023/01/28 05:48:27;;;;;;;1.38;1.00;;;17.50;40.90;;;;;;6106344;23;20558;-81
2023/01/28 05:50:53;;;;;;;0.93;0.88;;;17.50;40.90;;;;;;6156688;23;20571;-79
2023/01/28 05:53:19;;;;;;;0.88;0.88;;;17.50;40.90;;;;;;6156616;23;20575;-80
2023/01/28 05:55:48;;;;;;;0.77;0.73;;;17.50;40.90;;;;;;6156700;23;20128;-79
2023/01/28 05:58:14;;;;;;;2.22;0.80;;;17.50;40.90;;;;;;6130661;23;20143;-80
2023/01/28 06:00:40;;;;;;;2.15;0.98;;;17.50;40.90;;;;;;6106281;23;20155;-80
2023/01/28 06:03:05;;;;;;;1.30;0.75;;;17.50;40.90;;;;;;6130645;23;20140;-80
2023/01/28 06:05:31;;;;;;;1.25;0.82;;;17.50;40.90;;;;;;6130619;23;20503;-80
2023/01/28 06:07:57;;;;;;;1.98;0.70;;;17.50;40.90;;;;;;6130769;23;20653;-79
2023/01/28 06:10:22;;;;;;;2.17;0.88;;;17.50;40.90;;;;;;6130643;23;20146;-80
2023/01/28 06:12:48;;;;;;;1.13;0.77;;;17.50;40.90;;;;;;6130606;23;20623;-80
2023/01/28 06:15:14;;;;;;;1.80;0.90;;;17.50;41.00;;;;;;6130271;23;20218;-80
2023/01/28 06:17:39;;;;;;;0.80;0.80;;;17.50;40.90;;;;;;6130455;23;20190;-80
2023/01/28 06:20:07;;;;;;;0.70;0.68;;;17.50;40.90;;;;;;6130621;23;20209;-80
2023/01/28 06:22:33;;;;;;;1.13;0.80;;;17.50;41.00;;;;;;6130794;23;20135;-80
2023/01/28 06:24:58;;;;;;;1.30;0.90;;;17.50;41.10;;;;;;6106717;23;20218;-80
2023/01/28 06:27:24;;;;;;;1.25;0.90;;;17.50;41.10;;;;;;6130483;23;20167;-80
2023/01/28 06:29:49;;;;;;;1.20;0.85;;;17.50;41.20;;;;;;6130334;23;20622;-80
2023/01/28 06:32:15;;;;;;;1.50;0.90;;;17.50;41.10;;;;;;6129793;23;20456;-80
2023/01/28 06:34:41;;;;;;;1.25;0.80;;;17.50;41.00;;;;;;6106006;23;20614;-79
2023/01/28 06:37:07;;;;;;;1.35;0.80;;;17.40;41.00;;;;;;6156261;23;20458;-80
2023/01/28 06:39:32;;;;;;;1.20;0.80;;;17.50;41.10;;;;;;6130822;23;20140;-79
2023/01/28 06:41:58;;;;;;;1.48;0.90;;;17.50;41.10;;;;;;6156210;23;20214;-79
2023/01/28 06:44:24;;;;;;;1.15;0.90;;;17.50;41.20;;;;;;6130171;23;20143;-80
2023/01/28 06:46:50;;;;;;;1.35;0.70;;;17.50;41.10;;;;;;6130644;23;20687;-80
2023/01/28 06:49:15;;;;;;;1.25;0.82;;;17.50;41.10;;;;;;6156563;23;20215;-80
2023/01/28 06:51:41;;;;;;;1.92;0.90;;;17.50;41.10;;;;;;6156642;23;20461;-82
2023/01/28 06:54:07;;;;;;;2.25;0.80;;;17.50;41.20;;;;;;6130165;23;20250;-80
2023/01/28 06:56:32;;;;;;;0.93;0.85;;;17.40;41.00;;;;;;6156147;23;20233;-80
2023/01/28 06:58:58;;;;;;;0.70;0.60;;;17.50;41.20;;;;;;6130203;23;20139;-80
2023/01/28 07:01:24;;;;;;;1.20;0.80;;;17.40;41.10;;;;;;6156348;23;20630;-80
2023/01/28 07:03:49;;;;;;;1.02;0.80;;;17.40;41.10;;;;;;6130177;23;20138;-80
2023/01/28 07:06:15;;;;;;;1.00;0.80;;;17.50;41.20;;;;;;6156646;23;20144;-80
2023/01/28 07:08:41;;;;;;;2.05;0.90;;;17.40;41.10;;;;;;6105668;23;20594;-80
2023/01/28 07:11:07;;;;;;;1.45;0.80;;;17.50;41.20;;;;;;6105782;23;20206;-80
2023/01/28 07:13:32;;;;;;;3.03;0.77;;;17.50;41.20;;;;;;6129689;23;20621;-80
2023/01/28 07:15:58;;;;;;;1.67;0.95;;;17.40;41.20;;;;;;6155899;23;20148;-81
2023/01/28 07:18:24;;;;;;;0.80;0.80;;;17.40;41.20;;;;;;6156152;23;20147;-80
2023/01/28 07:20:49;;;;;;;0.90;0.65;;;17.40;41.10;;;;;;6155880;23;20132;-80
2023/01/28 07:23:15;;;;;;;1.85;0.77;;;17.50;41.10;;;;;;6155984;23;20227;-80
2023/01/28 07:25:40;;;;;;;2.60;0.80;;;17.50;41.20;;;;;;6155955;23;20547;-80
2023/01/28 07:28:06;;;;;;;1.42;0.88;;;17.40;41.10;;;;;;6155810;23;20590;-80
2023/01/28 07:30:32;;;;;;;1.05;0.68;;;17.50;41.20;;;;;;6130016;23;20605;-80
2023/01/28 07:32:58;;;;;;;1.73;1.10;;;17.50;41.20;;;;;;6155716;23;20171;-80
2023/01/28 07:35:24;;;;;;;1.27;0.88;;;17.40;41.20;;;;;;6129663;23;20132;-80
2023/01/28 07:37:51;;;;;;;1.08;0.73;;;17.50;41.20;;;;;;6156172;23;20132;-80
2023/01/28 07:40:17;;;;;;;1.25;0.82;;;17.40;41.20;;;;;;6156048;23;20223;-80
2023/01/28 07:42:43;;;;;;;0.98;0.90;;;17.40;41.20;;;;;;6155591;23;20214;-80
2023/01/28 07:45:09;;;;;;;0.77;0.70;;;17.40;41.40;;;;;;6155614;23;20586;-79
2023/01/28 07:47:34;;;;;;;1.20;0.80;;;17.50;41.30;;;;;;6155514;23;20594;-79
2023/01/28 07:50:00;;;;;;;1.13;0.73;;;17.50;41.20;;;;;;6155867;23;20140;-81
2023/01/28 07:52:26;;;;;;;0.88;0.80;;;17.50;41.20;;;;;;6155663;23;20656;-80
2023/01/28 07:54:51;;;;;;;1.20;0.90;;;17.50;41.20;;;;;;6129801;23;20132;-80
2023/01/28 07:57:22;;;;;;;0.90;0.70;;;17.50;41.20;;;;;;6155798;23;20607;-80
2023/01/28 07:59:49;;;;;;;2.10;1.10;;;17.50;41.20;;;;;;6155504;23;20166;-80
2023/01/28 08:02:15;;;;;;;1.10;0.90;;;17.40;41.20;;;;;;6105797;23;20253;-84
2023/01/28 08:04:41;;;;;;;1.67;0.95;;;17.50;41.40;;;;;;6129421;23;20551;-81
2023/01/28 08:07:06;;;;;;;1.20;0.90;;;17.50;41.40;;;;;;6108679;23;20170;-81
2023/01/28 08:09:33;;;;;;;2.15;0.80;;;17.50;41.40;;;;;;6157444;23;20564;-81
2023/01/28 08:12:01;;;;;;;3.05;0.90;;;17.50;41.20;;;;;;6107284;23;20147;-80
2023/01/28 08:14:27;;;;;;;0.70;0.68;;;17.60;41.20;;;;;;6133365;23;20258;-80
2023/01/28 08:16:52;;;;;;;2.17;0.82;;;17.60;41.20;;;;;;6159593;23;20491;-80
2023/01/28 08:19:20;;;;;;;1.30;0.80;;;17.60;41.00;;;;;;6158221;23;20175;-80
2023/01/28 08:21:47;;;;;;;10.18;0.90;;;17.60;41.10;;;;;;6086189;23;20155;-81
2023/01/28 08:24:13;;;;;;;9.20;1.10;;;17.60;41.10;;;;;;6108614;23;20159;-81
2023/01/28 08:26:38;;;;;;;5.70;1.02;;;17.60;41.20;;;;;;6133114;23;20590;-80
2023/01/28 08:29:04;;;;;;;2.90;1.00;;;17.60;41.20;;;;;;6132021;23;20524;-80
2023/01/28 08:31:30;;;;;;;4.88;1.23;;;17.70;41.30;;;;;;6131145;23;20159;-80
2023/01/28 08:33:55;;;;;;;4.38;0.90;;;17.60;41.30;;;;;;6157349;23;20171;-80
2023/01/28 08:36:21;;;;;;;15.88;1.55;;;17.70;41.40;;;;;;6108003;23;20431;-81
2023/01/28 08:38:52;;;;;;;4.53;1.02;;;17.70;41.30;;;;;;6083428;23;20239;-80
2023/01/28 08:41:21;;;;;;;7.50;1.23;;;17.80;41.70;;;;;;6157094;23;20142;-82
2023/01/28 08:43:47;;;;;;;10.63;1.50;;;17.80;42.10;;;;;;6132292;23;20140;-82
2023/01/28 08:46:12;;;;;;;14.30;1.95;;;17.90;41.30;;;;;;6158320;23;20219;-81
2023/01/28 08:48:38;;;;;;;13.30;2.03;;;17.90;41.30;;;;;;6134135;23;20171;-82
2023/01/28 08:51:04;;;;;;;15.82;1.50;;;18.00;41.50;;;;;;6107853;23;20136;-81
2023/01/28 08:53:30;;;;;;;11.40;2.03;;;18.10;41.40;;;;;;6157628;23;20167;-82
2023/01/28 08:55:58;;;;;;;13.98;1.77;;;18.10;41.60;;;;;;6134540;23;20140;-82
2023/01/28 08:58:24;;;;;;;26.05;2.20;;;18.10;41.70;;;;;;6134684;23;20128;-81
2023/01/28 09:00:50;;;;;;;13.45;1.60;;;18.20;41.60;;;;;;6085680;23;20155;-82
2023/01/28 09:03:19;;;;;;;22.05;2.10;;;18.10;41.70;;;;;;6108371;23;20139;-82
2023/01/28 09:05:49;;;;;;;15.90;1.73;;;18.20;41.60;;;;;;6072114;23;20152;-81
2023/01/28 09:08:15;;;;;;;15.57;1.60;;;18.20;41.90;;;;;;6071025;23;20535;-82
2023/01/28 09:10:41;;;;;;;9.40;1.52;;;18.20;42.00;;;;;;6095900;23;20163;-79
2023/01/28 09:13:10;;;;;;;14.90;1.35;;;18.20;41.70;;;;;;6072302;23;20208;-80
2023/01/28 09:15:36;;;;;;;11.77;1.40;;;18.30;41.60;;;;;;6096498;23;20192;-80
2023/01/28 09:18:02;;;;;;;10.57;1.70;;;18.30;41.60;;;;;;6072618;23;20149;-80
2023/01/28 09:20:28;;;;;;;13.98;1.48;;;18.30;41.60;;;;;;6073265;23;20168;-81
2023/01/28 09:22:54;;;;;;;16.15;1.73;;;18.30;41.50;;;;;;6096631;23;20476;-81
2023/01/28 09:25:19;;;;;;;13.70;1.40;;;18.30;41.40;;;;;;6072714;23;20160;-81
2023/01/28 09:27:45;;;;;;;8.85;1.00;;;18.30;41.30;;;;;;6097011;23;20463;-81
2023/01/28 09:30:12;;;;;;;9.27;1.23;;;18.30;41.40;;;;;;6072019;23;20156;-80
2023/01/28 09:32:38;;;;;;;10.88;1.35;;;18.40;41.50;;;;;;6097757;23;20217;-82
2023/01/28 09:35:08;;;;;;;8.73;1.48;;;18.30;41.50;;;;;;6098920;23;20576;-80
2023/01/28 09:37:34;;;;;;;9.27;1.10;;;18.30;41.50;;;;;;6106968;23;20179;-81
2023/01/28 09:40:00;;;;;;;8.02;1.20;;;18.40;41.60;;;;;;6110075;23;20227;-80
2023/01/28 09:42:53;;;;;;;7.47;1.27;;;18.30;41.60;;;;;;6133230;23;20127;-79
2023/01/28 09:45:32;;;;;;;16.13;1.30;;;18.30;41.70;;;;;;6113769;23;20486;-80
2023/01/28 09:48:09;;;;;;;12.68;1.60;;;18.40;41.60;;;;;;6109801;23;20533;-81
2023/01/28 09:50:38;;;;;;;12.95;1.20;;;18.40;41.50;;;;;;6133413;23;20149;-81
2023/01/28 09:53:11;;;;;;;19.88;1.65;;;18.40;41.70;;;;;;6108364;23;20171;-79
2023/01/28 09:55:43;;;;;;;11.43;1.38;;;18.40;41.70;;;;;;6108288;23;20140;-81
2023/01/28 09:58:18;;;;;;;16.58;1.52;;;18.40;41.80;;;;;;6107947;23;20540;-79
2023/01/28 10:00:57;;;;;;;20.33;2.10;;;18.40;41.90;;;;;;6085994;23;20515;-81
2023/01/28 10:03:46;;;;;;;19.67;1.70;;;18.40;42.00;;;;;;6082168;23;20162;-81
2023/01/28 10:06:20;;;;;;;16.00;2.00;;;18.40;42.00;;;;;;6155784;23;20572;-81
2023/01/28 10:09:01;;;;;;;13.52;1.38;;;18.40;42.10;;;;;;6082516;23;20159;-80
2023/01/28 10:12:01;;;;;;;19.23;1.90;;;18.40;42.20;;;;;;6156801;23;20162;-80
2023/01/28 10:14:56;;;;;;;25.30;3.10;;;18.40;42.30;;;;;;6105224;23;20254;-80
2023/01/28 10:17:31;;;;;;;41.40;3.67;;;18.40;42.10;;;;;;6133925;23;20139;-82
2023/01/28 10:20:02;;;;;;;69.03;5.15;;;18.40;42.10;;;;;;6106200;23;20420;-79
2023/01/28 10:22:31;;;;;;;49.70;4.68;;;18.30;42.20;;;;;;6131145;23;20459;-79
2023/01/28 10:25:02;;;;;;;29.63;3.15;;;18.30;42.30;;;;;;6130814;23;20212;-80
2023/01/28 10:27:29;;;;;;;41.03;4.10;;;18.30;42.20;;;;;;6108313;23;20147;-79
2023/01/28 10:29:55;;;;;;;34.65;4.07;;;18.40;42.30;;;;;;6157537;23;20136;-80
2023/01/28 10:32:28;;;;;;;40.35;3.47;;;18.30;42.50;;;;;;6106577;23;20235;-79
2023/01/28 10:34:53;;;;;;;31.77;2.90;;;18.30;42.70;;;;;;6156762;23;20555;-79
2023/01/28 10:37:19;;;;;;;33.05;2.95;;;18.40;42.60;;;;;;6157905;23;20186;-81
2023/01/28 10:39:45;;;;;;;41.05;3.78;;;18.40;42.60;;;;;;6106451;23;20151;-81
2023/01/28 10:42:26;;;;;;;60.35;4.07;;;18.30;42.60;;;;;;6131923;23;20159;-80
2023/01/28 10:44:52;;;;;;;45.97;3.72;;;18.30;42.80;;;;;;6157390;23;20530;-80
2023/01/28 10:47:26;;;;;;;54.33;3.67;;;18.30;42.80;;;;;;6157492;23;20144;-80
2023/01/28 10:49:53;;;;;;;48.03;4.03;;;18.30;43.10;;;;;;6130693;23;20174;-80
2023/01/28 10:52:19;;;;;;;49.92;3.58;;;18.30;42.90;;;;;;6081772;23;20151;-80
2023/01/28 10:54:45;;;;;;;67.03;4.60;;;18.40;42.80;;;;;;6132273;23;20197;-80
2023/01/28 10:57:16;;;;;;;45.10;4.18;;;18.40;43.00;;;;;;6131242;23;20142;-80
2023/01/28 10:59:42;;;;;;;54.85;4.47;;;18.40;43.00;;;;;;6107348;23;20227;-80
2023/01/28 11:02:31;;;;;;;50.65;3.83;;;18.40;43.20;;;;;;6083680;23;20151;-81
2023/01/28 11:05:10;;;;;;;43.85;4.25;;;18.30;43.00;;;;;;6156736;23;20135;-80
2023/01/28 11:07:36;;;;;;;41.13;3.25;;;18.30;43.20;;;;;;6083871;23;20241;-80
2023/01/28 11:10:02;;;;;;;50.63;3.65;;;18.40;43.30;;;;;;6157586;23;20135;-80
2023/01/28 11:12:29;;;;;;;43.25;2.97;;;18.40;43.30;;;;;;6130451;23;20139;-79
2023/01/28 11:14:57;;;;;;;39.65;3.45;;;18.40;43.50;;;;;;6081865;23;20191;-80
2023/01/28 11:17:26;;;;;;;37.28;3.33;;;18.50;43.10;;;;;;6105368;23;20238;-80
2023/01/28 11:19:52;;;;;;;39.90;4.00;;;18.50;43.20;;;;;;6106831;23;20132;-80
2023/01/28 11:22:35;;;;;;;31.90;3.20;;;18.50;43.40;;;;;;6106469;23;20128;-80
2023/01/28 11:25:03;;;;;;;37.28;3.42;;;18.50;43.20;;;;;;6108101;23;20159;-80
2023/01/28 11:27:30;;;;;;;41.97;2.83;;;18.50;43.40;;;;;;6082850;23;20151;-80
2023/01/28 11:29:57;;;;;;;32.22;2.95;;;18.50;43.60;;;;;;6082029;23;20183;-80
2023/01/28 11:32:24;;;;;;;37.28;3.67;;;18.50;43.50;;;;;;6105266;23;20181;-81
2023/01/28 11:34:52;;;;;;;38.20;2.70;;;18.50;43.40;;;;;;6080523;23;20604;-80
2023/01/28 11:37:20;;;;;;;35.28;3.30;;;18.50;43.50;;;;;;6081649;23;20166;-79
2023/01/28 11:39:46;;;;;;;32.97;3.05;;;18.50;43.50;;;;;;6105561;23;20463;-80
2023/01/28 11:42:16;;;;;;;30.48;2.70;;;18.50;43.30;;;;;;6129299;23;20176;-80
2023/01/28 11:44:42;;;;;;;24.58;2.50;;;18.50;43.60;;;;;;6081676;23;20159;-79
2023/01/28 11:47:34;;;;;;;30.73;3.78;;;18.50;43.60;;;;;;6129342;23;20170;-79
2023/01/28 11:50:23;;;;;;;29.48;2.50;;;18.50;43.90;;;;;;6135055;23;20135;-80
2023/01/28 11:53:27;;;;;;;41.90;3.38;;;18.50;43.70;;;;;;6155683;23;20633;-79
2023/01/28 11:56:03;;;;;;;31.92;2.95;;;18.50;43.90;;;;;;6132931;23;20567;-78
2023/01/28 11:58:55;;;;;;;38.63;2.92;;;18.50;43.70;;;;;;6106430;23;20143;-79
2023/01/28 12:01:36;;;;;;;35.65;3.45;;;18.50;43.80;;;;;;6085971;23;20143;-79
2023/01/28 12:04:20;;;;;;;30.50;3.30;;;18.50;44.30;;;;;;6131905;23;20142;-80
2023/01/28 12:07:17;;;;;;;25.13;2.65;;;18.50;44.20;;;;;;6155711;23;20157;-79
2023/01/28 12:09:57;;;;;;;32.83;3.05;;;18.50;44.20;;;;;;6134342;23;20197;-79
2023/01/28 12:12:38;;;;;;;19.70;2.67;;;18.50;44.20;;;;;;6130414;23;20144;-79
2023/01/28 12:15:37;;;;;;;16.13;2.10;;;18.50;44.30;;;;;;6156426;23;20191;-79
2023/01/28 12:18:36;;;;;;;18.83;2.13;;;18.50;44.20;;;;;;6134914;23;20167;-79
2023/01/28 12:21:09;;;;;;;21.98;2.42;;;18.50;44.20;;;;;;6156035;23;20432;-80
2023/01/28 12:24:00;;;;;;;18.27;1.85;;;18.50;44.30;;;;;;6083511;23;20605;-80
2023/01/28 12:26:48;;;;;;;26.25;2.85;;;18.50;44.10;;;;;;6087463;23;20480;-80
2023/01/28 12:29:33;;;;;;;24.35;2.08;;;18.60;44.10;;;;;;6107201;23;20183;-78
2023/01/28 12:32:18;;;;;;;24.40;2.50;;;18.50;44.00;;;;;;6132476;23;20139;-80
2023/01/28 12:35:06;;;;;;;29.02;2.85;;;18.60;44.10;;;;;;6088288;23;20159;-81
2023/01/28 12:37:44;;;;;;;19.40;2.45;;;18.50;44.20;;;;;;6131545;23;20148;-80
2023/01/28 12:40:35;;;;;;;35.35;2.70;;;18.50;44.50;;;;;;6132122;23;20155;-80
2023/01/28 12:43:07;;;;;;;24.00;2.30;;;18.50;44.80;;;;;;6132109;23;20486;-80
2023/01/28 12:45:39;;;;;;;23.15;2.55;;;18.60;44.70;;;;;;6132932;23;20140;-81
2023/01/28 12:48:12;;;;;;;23.13;2.67;;;18.60;44.60;;;;;;6158851;23;20132;-81
2023/01/28 12:50:48;;;;;;;16.48;1.92;;;18.60;44.50;;;;;;6084827;23;20165;-80
2023/01/28 12:53:37;;;;;;;20.63;2.67;;;18.60;44.60;;;;;;6132780;23;20198;-80
2023/01/28 12:56:08;;;;;;;24.13;2.60;;;18.60;44.70;;;;;;6112997;23;20139;-80
2023/01/28 12:58:49;;;;;;;16.35;2.20;;;18.60;44.90;;;;;;6084352;23;20170;-83
2023/01/28 13:01:17;;;;;;;14.13;1.52;;;18.60;45.00;;;;;;6107505;23;20177;-82
2023/01/28 13:03:51;;;;;;;15.43;1.48;;;18.60;45.10;;;;;;6108255;23;20270;-83
2023/01/28 13:06:30;;;;;;;13.90;1.77;;;18.60;45.10;;;;;;6131769;23;20136;-82
2023/01/28 13:09:03;;;;;;;13.25;1.98;;;18.70;45.50;;;;;;6108661;23;20161;-84
2023/01/28 13:11:33;;;;;;;13.45;1.80;;;18.70;45.40;;;;;;6085664;23;20159;-82
2023/01/28 13:13:58;;;;;;;10.55;1.48;;;18.70;45.80;;;;;;6109284;23;20282;-82
2023/01/28 13:16:24;;;;;;;13.57;1.80;;;18.70;45.70;;;;;;6112670;23;20135;-83
2023/01/28 13:18:50;;;;;;;18.83;1.92;;;18.80;45.60;;;;;;6107301;23;20524;-82
2023/01/28 13:21:32;;;;;;;12.02;1.67;;;18.80;45.70;;;;;;6084666;23;20155;-85
2023/01/28 13:24:25;;;;;;;19.75;2.33;;;18.80;45.50;;;;;;6133121;23;20135;-85
2023/01/28 13:26:57;;;;;;;17.08;1.80;;;18.80;45.90;;;;;;6112374;23;20582;-87
2023/01/28 13:29:30;;;;;;;11.73;1.63;;;18.80;45.10;;;;;;6090942;23;20144;-85
2023/01/28 13:32:22;;;;;;;10.82;1.33;;;18.80;45.30;;;;;;6085806;23;20175;-88
2023/01/28 13:34:57;;;;;;;13.88;1.88;;;18.80;45.70;;;;;;6136031;23;20226;-88